MET'MAP v2.0
soon released !

Expected late october,
this new version will be
more efficient, smarter,
and hosted on a brand new
server x3 powerfull...
...and still free !


Not compatible ?
Try the mobile version !

LOG IN : | Subscribe | Disclaimer | Who is Orbifly ? |
ICAO code :

TAF - LIME Orio al Serio International Airport - Bergamo - 18 Feb 2020 04:35 UTC
Data Sources :     NOAA   


- Airport Elevation : 782 ft
- IATA code : BGY
- No reported NOTAMs.


LIME - Orio al Serio International Airport - Bergamo

Latest METAR recorded : 2015/08/11 07:50 LIME 110750Z VRB02KT CAVOK 27/13 Q1014
TAF TAF LIME
Valid from the 18 at 00:00 until the 19 at 00:00 UTC


172300Z 1800/1824 VRB05KT 4000 BR BKN035 BKN010 OVC025
TEMPO 1802/1807 1200 BCFG

Source NOAA


MET'MAP, your aeronautical weather chart ! - Copyright ORBIFLY December 2007

Programming & Development : Alexandra Zaïnal
Co-Developer : Marc-Olivier Méhu
Technical & hardware support : Manuel Goepfert
Concept & Financing : Baudouin d'Aumeries